createdAt,value
2018-06-11T00:01:39.196Z,100409.95
2018-06-11T00:04:07.529Z,100406.66
2018-06-11T00:06:35.872Z,100401.02
2018-06-11T00:09:06.200Z,100401.20
2018-06-11T00:11:34.648Z,100397.38
2018-06-11T00:14:03.906Z,100407.33
2018-06-11T00:16:32.230Z,100409.45
2018-06-11T00:19:00.764Z,100408.16
2018-06-11T00:21:29.108Z,100405.65
2018-06-11T00:23:57.528Z,100416.59
2018-06-11T00:26:25.867Z,100420.22
2018-06-11T00:28:55.148Z,100425.52
2018-06-11T00:31:24.470Z,100422.84
2018-06-11T00:33:53.809Z,100428.13
2018-06-11T00:36:23.143Z,100428.80
2018-06-11T00:38:52.540Z,100428.80
2018-06-11T00:41:21.818Z,100436.70
2018-06-11T00:43:50.144Z,100440.66
2018-06-11T00:46:18.590Z,100445.81
2018-06-11T00:48:47.916Z,100446.30
2018-06-11T00:51:17.384Z,100448.77
2018-06-11T00:53:45.744Z,100447.59
2018-06-11T00:56:14.073Z,100444.09
2018-06-11T00:58:42.392Z,100441.63
2018-06-11T01:01:10.717Z,100443.78
2018-06-11T01:03:40.274Z,100442.30
2018-06-11T01:06:08.597Z,100439.99
2018-06-11T01:08:36.976Z,100442.28
2018-06-11T01:11:05.305Z,100450.04
2018-06-11T01:13:33.672Z,100447.88
2018-06-11T01:16:02.000Z,100450.20
2018-06-11T01:18:30.337Z,100450.52
2018-06-11T01:20:58.727Z,100449.52
2018-06-11T01:23:27.150Z,100445.55
2018-06-11T01:25:55.488Z,100443.08
2018-06-11T01:28:23.820Z,100462.36
2018-06-11T01:30:52.234Z,100464.03
2018-06-11T01:33:20.573Z,100455.13
2018-06-11T01:35:49.006Z,100454.44
2018-06-11T01:38:17.384Z,100458.73
2018-06-11T01:40:45.717Z,100453.27
2018-06-11T01:43:14.048Z,100453.09
2018-06-11T01:45:42.424Z,100451.42
2018-06-11T01:48:10.837Z,100461.46
2018-06-11T01:50:39.221Z,100462.59
2018-06-11T01:53:07.585Z,100462.21
2018-06-11T01:55:35.954Z,100460.71
2018-06-11T01:58:04.332Z,100461.03
2018-06-11T02:00:32.709Z,100459.05
2018-06-11T02:03:01.967Z,100456.56
2018-06-11T02:05:30.312Z,100459.51
2018-06-11T02:07:58.653Z,100460.14
2018-06-11T02:10:26.996Z,100459.95
2018-06-11T02:12:55.373Z,100447.84
2018-06-11T02:15:23.713Z,100451.45
2018-06-11T02:17:52.125Z,100453.75
2018-06-11T02:20:20.601Z,100457.22
2018-06-11T02:22:49.397Z,100449.30
2018-06-11T02:25:17.865Z,100452.14
2018-06-11T02:27:46.272Z,100459.05
2018-06-11T02:30:14.650Z,100463.52
2018-06-11T02:32:43.048Z,100466.95
2018-06-11T02:35:11.394Z,100470.23
2018-06-11T02:37:39.732Z,100462.30
2018-06-11T02:40:08.133Z,100465.88
2018-06-11T02:42:36.537Z,100457.28
2018-06-11T02:45:05.061Z,100457.20
2018-06-11T02:47:33.387Z,100460.84
2018-06-11T02:50:01.713Z,100454.54
2018-06-11T02:52:30.046Z,100456.16
2018-06-11T02:54:58.490Z,100454.83
2018-06-11T02:57:26.869Z,100458.09
2018-06-11T02:59:55.261Z,100461.35
2018-06-11T03:02:23.720Z,100467.95
2018-06-11T03:04:52.082Z,100471.20
2018-06-11T03:07:20.413Z,100467.30
2018-06-11T03:09:48.756Z,100472.60
2018-06-11T03:12:17.089Z,100475.94
2018-06-11T03:14:45.408Z,100480.95
2018-06-11T03:17:13.737Z,100481.02
2018-06-11T03:19:42.114Z,100483.06
2018-06-11T03:22:11.397Z,100469.28
2018-06-11T03:24:39.726Z,100477.05
2018-06-11T03:27:08.064Z,100479.70
2018-06-11T03:29:37.458Z,100483.48
2018-06-11T03:32:05.953Z,100490.45
2018-06-11T03:34:34.304Z,100492.09
2018-06-11T03:37:02.683Z,100483.52
2018-06-11T03:39:31.054Z,100504.65
2018-06-11T03:41:59.401Z,100500.02
2018-06-11T03:44:27.853Z,100504.78
2018-06-11T03:46:56.212Z,100505.91
2018-06-11T03:49:24.550Z,100512.70
2018-06-11T03:51:52.896Z,100508.95
2018-06-11T03:54:21.241Z,100510.80
2018-06-11T03:56:49.582Z,100511.08
2018-06-11T03:59:17.916Z,100512.41
2018-06-11T04:01:46.256Z,100514.42
2018-06-11T04:04:15.505Z,100519.05
2018-06-11T04:06:43.840Z,100519.50
2018-06-11T04:09:12.242Z,100523.48
2018-06-11T04:11:40.580Z,100528.30
2018-06-11T04:14:08.928Z,100531.15
2018-06-11T04:16:37.321Z,100532.16
2018-06-11T04:19:05.868Z,100531.02
2018-06-11T04:21:34.257Z,100541.13
2018-06-11T04:24:02.638Z,100546.42
2018-06-11T04:26:31.093Z,100545.14
2018-06-11T04:28:59.408Z,100538.53
2018-06-11T04:31:27.737Z,100537.53
2018-06-11T04:33:56.069Z,100531.63
2018-06-11T04:36:24.404Z,100534.63
2018-06-11T04:38:52.737Z,100534.31
2018-06-11T04:41:21.090Z,100540.44
2018-06-11T04:43:49.441Z,100542.77
2018-06-11T04:46:17.769Z,100535.50
2018-06-11T04:48:46.149Z,100542.28
2018-06-11T04:51:14.476Z,100538.63
2018-06-11T04:53:42.836Z,100540.30
2018-06-11T04:56:11.253Z,100542.98
2018-06-11T04:58:39.685Z,100539.70
2018-06-11T05:01:11.810Z,100546.31
2018-06-11T05:03:40.232Z,100545.66
2018-06-11T05:06:08.575Z,100542.69
2018-06-11T05:08:37.045Z,100546.66
2018-06-11T05:11:05.390Z,100550.13
2018-06-11T05:13:33.917Z,100549.30
2018-06-11T05:16:02.333Z,100559.55
2018-06-11T05:18:30.665Z,100557.90
2018-06-11T05:20:59.038Z,100569.46
2018-06-11T05:23:27.368Z,100563.21
2018-06-11T05:25:55.878Z,100571.14
2018-06-11T05:28:24.260Z,100571.80
2018-06-11T05:30:52.589Z,100570.49
2018-06-11T05:33:20.916Z,100573.42
2018-06-11T05:35:49.265Z,100572.75
2018-06-11T05:38:17.596Z,100577.45
2018-06-11T05:40:45.983Z,100575.09
2018-06-11T05:43:14.309Z,100577.91
2018-06-11T05:45:42.658Z,100582.70
2018-06-11T05:48:11.044Z,100583.33
2018-06-11T05:50:39.354Z,100576.34
2018-06-11T05:53:07.715Z,100575.47
2018-06-11T05:55:36.065Z,100580.23
2018-06-11T05:58:04.412Z,100581.20
2018-06-11T06:00:32.725Z,100593.07
2018-06-11T06:03:01.045Z,100590.42
2018-06-11T06:05:29.356Z,100591.74
2018-06-11T06:07:57.673Z,100595.19
2018-06-11T06:10:25.990Z,100591.34
2018-06-11T06:12:54.357Z,100600.39
2018-06-11T06:15:22.685Z,100606.72
2018-06-11T06:17:51.037Z,100602.45
2018-06-11T06:20:19.457Z,100602.92
2018-06-11T06:22:47.862Z,100596.60
2018-06-11T06:25:16.212Z,100601.55
2018-06-11T06:27:44.637Z,100601.44
2018-06-11T06:30:12.953Z,100596.16
2018-06-11T06:32:41.431Z,100593.74
2018-06-11T06:35:09.837Z,100585.09
2018-06-11T06:37:38.220Z,100587.67
2018-06-11T06:40:06.774Z,100584.84
2018-06-11T06:42:35.108Z,100587.20
2018-06-11T06:45:03.500Z,100589.44
2018-06-11T06:47:31.844Z,100597.11
2018-06-11T06:50:00.252Z,100595.44
2018-06-11T06:52:28.677Z,100588.91
2018-06-11T06:54:56.997Z,100593.44
2018-06-11T06:57:25.357Z,100590.02
2018-06-11T06:59:53.732Z,100591.19
2018-06-11T07:02:22.665Z,100594.70
2018-06-11T07:04:50.985Z,100590.91
2018-06-11T07:07:19.427Z,100590.41
2018-06-11T07:09:47.759Z,100591.25
2018-06-11T07:12:16.135Z,100587.56
2018-06-11T07:14:44.605Z,100596.76
2018-06-11T07:17:13.003Z,100586.82
2018-06-11T07:19:41.324Z,100582.70
2018-06-11T07:22:09.685Z,100586.34
2018-06-11T07:24:38.005Z,100586.78
2018-06-11T07:27:06.362Z,100591.83
2018-06-11T07:29:34.705Z,100584.48
2018-06-11T07:32:03.033Z,100587.42
2018-06-11T07:34:31.355Z,100587.50
2018-06-11T07:36:59.673Z,100590.57
2018-06-11T07:39:27.992Z,100589.87
2018-06-11T07:41:56.309Z,100591.98
2018-06-11T07:44:24.688Z,100584.01
2018-06-11T07:46:53.057Z,100586.44
2018-06-11T07:49:21.428Z,100583.88
2018-06-11T07:51:49.753Z,100584.21
2018-06-11T07:54:18.097Z,100581.55
2018-06-11T07:56:46.553Z,100590.12
2018-06-11T07:59:14.872Z,100582.73
2018-06-11T08:01:43.233Z,100593.39
2018-06-11T08:04:11.611Z,100594.80
2018-06-11T08:06:40.033Z,100589.16
2018-06-11T08:09:08.877Z,100590.70
2018-06-11T08:11:37.469Z,100590.86
2018-06-11T08:14:05.817Z,100586.92
2018-06-11T08:16:34.178Z,100591.25
2018-06-11T08:19:02.499Z,100590.86
2018-06-11T08:21:30.817Z,100587.97
2018-06-11T08:23:59.245Z,100589.03
2018-06-11T08:26:27.588Z,100593.23
2018-06-11T08:28:55.958Z,100598.03
2018-06-11T08:31:24.281Z,100594.42
2018-06-11T08:33:54.069Z,100602.26
2018-06-11T08:36:22.523Z,100606.40
2018-06-11T08:38:50.854Z,100603.69
2018-06-11T08:41:19.401Z,100598.78
2018-06-11T08:43:47.852Z,100594.08
2018-06-11T08:46:16.226Z,100593.02
2018-06-11T08:48:44.605Z,100608.62
2018-06-11T08:51:13.088Z,100600.91
2018-06-11T08:53:41.482Z,100602.32
2018-06-11T08:56:09.965Z,100607.25
2018-06-11T08:58:38.401Z,100604.20
2018-06-11T09:01:06.753Z,100608.80
2018-06-11T09:03:35.090Z,100611.47
2018-06-11T09:06:03.514Z,100612.06
2018-06-11T09:08:31.845Z,100615.63
2018-06-11T09:11:00.216Z,100616.41
2018-06-11T09:13:28.552Z,100611.78
2018-06-11T09:15:57.062Z,100607.83
2018-06-11T09:18:25.555Z,100612.22
2018-06-11T09:20:53.938Z,100610.23
2018-06-11T09:23:22.505Z,100606.38
2018-06-11T09:25:50.926Z,100611.44
2018-06-11T09:28:20.399Z,100617.46
2018-06-11T09:30:48.727Z,100611.27
2018-06-11T09:33:18.362Z,100619.02
2018-06-11T09:35:46.734Z,100608.08
2018-06-11T09:38:15.309Z,100623.14
2018-06-11T09:40:43.865Z,100622.23
2018-06-11T09:43:12.469Z,100625.06
2018-06-11T09:45:42.050Z,100628.77
2018-06-11T09:48:10.573Z,100630.09
2018-06-11T09:50:39.071Z,100633.52
2018-06-11T09:53:07.570Z,100623.94
2018-06-11T09:55:36.013Z,100635.88
2018-06-11T09:58:04.467Z,100637.94
2018-06-11T10:00:32.829Z,100635.56
2018-06-11T10:03:01.222Z,100636.48
2018-06-11T10:05:30.965Z,100638.36
2018-06-11T10:07:59.350Z,100635.12
2018-06-11T10:10:27.701Z,100634.25
2018-06-11T10:12:56.061Z,100632.53
2018-06-11T10:15:24.441Z,100641.48
2018-06-11T10:17:52.778Z,100632.52
2018-06-11T10:20:21.141Z,100627.35
2018-06-11T10:22:49.785Z,100631.78
2018-06-11T10:25:18.348Z,100621.95
2018-06-11T10:27:46.808Z,100622.50
2018-06-11T10:30:15.150Z,100624.34
2018-06-11T10:32:43.497Z,100623.34
2018-06-11T10:35:12.081Z,100623.95
2018-06-11T10:37:40.645Z,100627.44
2018-06-11T10:40:08.966Z,100629.08
2018-06-11T10:42:37.309Z,100628.91
2018-06-11T10:45:05.697Z,100628.55
2018-06-11T10:47:34.072Z,100628.88
2018-06-11T10:50:02.557Z,100626.75
2018-06-11T10:52:30.881Z,100622.88
2018-06-11T10:54:59.265Z,100617.23
2018-06-11T10:57:27.720Z,100620.48
2018-06-11T10:59:56.098Z,100621.03
2018-06-11T11:02:24.453Z,100621.34
2018-06-11T11:04:52.861Z,100618.34
2018-06-11T11:07:21.194Z,100608.75
2018-06-11T11:09:49.618Z,100620.43
2018-06-11T11:12:18.010Z,100616.77
2018-06-11T11:14:46.413Z,100606.78
2018-06-11T11:17:14.757Z,100609.08
2018-06-11T11:19:43.117Z,100614.68
2018-06-11T11:22:11.453Z,100613.64
2018-06-11T11:24:39.898Z,100604.97
2018-06-11T11:27:08.285Z,100606.81
2018-06-11T11:29:36.741Z,100607.03
2018-06-11T11:32:05.151Z,100600.88
2018-06-11T11:34:33.525Z,100591.47
2018-06-11T11:37:01.914Z,100583.95
2018-06-11T11:39:30.265Z,100591.61
2018-06-11T11:41:58.657Z,100587.60
2018-06-11T11:44:27.975Z,100578.75
2018-06-11T11:46:56.387Z,100584.67
2018-06-11T11:49:24.843Z,100584.81
2018-06-11T11:51:53.304Z,100582.86
2018-06-11T11:54:21.621Z,100577.42
2018-06-11T11:56:50.025Z,100578.33
2018-06-11T11:59:18.454Z,100588.09
2018-06-11T12:01:51.397Z,100592.00
2018-06-11T12:04:20.992Z,100590.34
2018-06-11T12:06:51.012Z,100584.52
2018-06-11T12:09:19.370Z,100588.84
2018-06-11T12:11:51.025Z,100596.67
2018-06-11T12:14:19.527Z,100581.23
2018-06-11T12:16:47.852Z,100576.37
2018-06-11T12:19:16.235Z,100573.96
2018-06-11T12:21:44.559Z,100558.73
2018-06-11T12:24:14.163Z,100551.34
2018-06-11T12:26:42.519Z,100551.33
2018-06-11T12:29:11.813Z,100551.41
2018-06-11T12:31:40.913Z,100553.81
2018-06-11T12:34:09.312Z,100537.95
2018-06-11T12:36:37.654Z,100525.82
2018-06-11T12:39:07.892Z,100528.53
2018-06-11T12:41:36.212Z,100522.73
2018-06-11T12:44:04.780Z,100521.90
2018-06-11T12:46:33.159Z,100528.80
2018-06-11T12:49:01.467Z,100519.64
2018-06-11T12:51:29.782Z,100515.83
2018-06-11T12:53:58.106Z,100519.91
2018-06-11T12:56:26.490Z,100505.04
2018-06-11T12:58:54.841Z,100500.61
2018-06-11T13:01:23.694Z,100496.12
2018-06-11T13:03:52.093Z,100502.88
2018-06-11T13:06:20.469Z,100500.79
2018-06-11T13:08:48.847Z,100494.66
2018-06-11T13:11:17.218Z,100482.92
2018-06-11T13:13:45.536Z,100485.97
2018-06-11T13:16:13.862Z,100486.15
2018-06-11T13:18:42.178Z,100485.23
2018-06-11T13:21:10.552Z,100481.58
2018-06-11T13:23:38.933Z,100486.16
2018-06-11T13:26:07.444Z,100487.59
2018-06-11T13:28:35.787Z,100483.06
2018-06-11T13:31:04.432Z,100482.02
2018-06-11T13:33:33.059Z,100491.13
2018-06-11T13:36:01.360Z,100491.37
2018-06-11T13:38:29.677Z,100483.44
2018-06-11T13:40:58.025Z,100478.71
2018-06-11T13:43:26.375Z,100473.06
2018-06-11T13:45:54.812Z,100466.81
2018-06-11T13:48:23.137Z,100458.20
2018-06-11T13:50:51.593Z,100452.33
2018-06-11T13:53:19.905Z,100456.70
2018-06-11T13:55:48.313Z,100455.98
2018-06-11T13:58:16.633Z,100453.03
2018-06-11T14:00:45.012Z,100450.17
2018-06-11T14:03:13.336Z,100447.50
2018-06-11T14:05:42.263Z,100435.44
2018-06-11T14:08:10.796Z,100431.15
2018-06-11T14:10:39.425Z,100439.00
2018-06-11T14:13:07.829Z,100444.88
2018-06-11T14:15:36.213Z,100455.61
2018-06-11T14:18:04.612Z,100447.33
2018-06-11T14:20:32.965Z,100442.34
2018-06-11T14:23:01.321Z,100442.56
2018-06-11T14:25:30.698Z,100435.56
2018-06-11T14:27:59.056Z,100435.03
2018-06-11T14:30:27.382Z,100430.78
2018-06-11T14:32:55.733Z,100435.33
2018-06-11T14:35:24.101Z,100430.69
2018-06-11T14:37:52.417Z,100431.16
2018-06-11T14:40:20.814Z,100428.05
2018-06-11T14:42:49.133Z,100425.25
2018-06-11T14:45:17.441Z,100424.53
2018-06-11T14:47:45.813Z,100415.64
2018-06-11T14:50:14.169Z,100412.30
2018-06-11T14:52:42.490Z,100414.75
2018-06-11T14:55:10.865Z,100409.10
2018-06-11T14:57:39.192Z,100410.02
2018-06-11T15:00:07.649Z,100392.06
2018-06-11T15:02:36.058Z,100378.97
2018-06-11T15:05:04.384Z,100369.00
2018-06-11T15:07:32.722Z,100369.85
2018-06-11T15:10:01.057Z,100374.81
2018-06-11T15:12:29.534Z,100370.92
2018-06-11T15:14:57.864Z,100366.41
2018-06-11T15:17:26.246Z,100369.39
2018-06-11T15:19:54.669Z,100367.53
2018-06-11T15:22:23.086Z,100359.78
2018-06-11T15:24:51.461Z,100363.13
2018-06-11T15:27:19.963Z,100353.31
2018-06-11T15:29:48.301Z,100348.75
2018-06-11T15:32:16.761Z,100345.65
2018-06-11T15:34:45.150Z,100340.84
2018-06-11T15:37:13.488Z,100344.59
2018-06-11T15:39:41.866Z,100340.57
2018-06-11T15:42:10.311Z,100341.30
2018-06-11T15:44:38.774Z,100338.06
2018-06-11T15:47:07.112Z,100337.52
2018-06-11T15:49:35.531Z,100333.49
2018-06-11T15:52:03.858Z,100326.23
2018-06-11T15:54:32.294Z,100325.95
2018-06-11T15:57:00.741Z,100320.80
2018-06-11T15:59:29.149Z,100327.86
2018-06-11T16:01:57.540Z,100325.03
2018-06-11T16:04:25.866Z,100323.50
2018-06-11T16:06:54.234Z,100309.77
2018-06-11T16:09:22.674Z,100310.66
2018-06-11T16:11:51.013Z,100313.99
2018-06-11T16:14:19.422Z,100306.88
2018-06-11T16:16:47.813Z,100312.98
2018-06-11T16:19:16.153Z,100309.83
2018-06-11T16:21:44.514Z,100304.71
2018-06-11T16:24:12.829Z,100306.64
2018-06-11T16:26:41.180Z,100306.42
2018-06-11T16:29:10.555Z,100311.91
2018-06-11T16:31:38.916Z,100307.86
2018-06-11T16:34:07.248Z,100300.64
2018-06-11T16:36:35.666Z,100308.25
2018-06-11T16:39:05.929Z,100312.12
2018-06-11T16:41:34.326Z,100301.55
2018-06-11T16:44:02.701Z,100297.95
2018-06-11T16:46:31.048Z,100294.64
2018-06-11T16:48:59.413Z,100295.03
2018-06-11T16:51:27.751Z,100290.88
2018-06-11T16:53:56.133Z,100285.38
2018-06-11T16:56:24.445Z,100284.39
2018-06-11T16:58:52.780Z,100285.13
2018-06-11T17:01:21.232Z,100278.12
2018-06-11T17:03:49.685Z,100279.90
2018-06-11T17:06:18.038Z,100282.10
2018-06-11T17:08:46.398Z,100283.23
2018-06-11T17:11:14.794Z,100266.23
2018-06-11T17:13:43.116Z,100270.36
2018-06-11T17:16:11.434Z,100271.47
2018-06-11T17:18:39.776Z,100271.13
2018-06-11T17:21:08.105Z,100270.52
2018-06-11T17:23:36.425Z,100272.08
2018-06-11T17:26:04.874Z,100273.38
2018-06-11T17:28:33.253Z,100266.27
2018-06-11T17:31:01.618Z,100266.64
2018-06-11T17:33:29.944Z,100264.70
2018-06-11T17:35:58.277Z,100267.27
2018-06-11T17:38:26.618Z,100256.80
2018-06-11T17:40:55.083Z,100256.98
2018-06-11T17:43:23.501Z,100258.04
2018-06-11T17:45:51.865Z,100247.57
2018-06-11T17:48:21.094Z,100259.25
2018-06-11T17:50:49.461Z,100258.55
2018-06-11T17:53:17.947Z,100255.66
2018-06-11T17:55:46.544Z,100253.20
2018-06-11T17:58:15.007Z,100253.78
2018-06-11T18:00:43.516Z,100249.77
2018-06-11T18:03:11.893Z,100251.38
2018-06-11T18:05:40.265Z,100242.80
2018-06-11T18:08:09.440Z,100243.61
2018-06-11T18:10:45.621Z,100242.33
2018-06-11T18:13:13.954Z,100241.70
2018-06-11T18:15:42.281Z,100240.00
2018-06-11T18:18:10.781Z,100238.33
2018-06-11T18:20:39.221Z,100235.30
2018-06-11T18:23:07.613Z,100238.80
2018-06-11T18:25:35.981Z,100244.83
2018-06-11T18:28:04.415Z,100247.51
2018-06-11T18:30:32.965Z,100252.27
2018-06-11T18:33:01.386Z,100252.17
2018-06-11T18:35:29.870Z,100251.60
2018-06-11T18:37:58.250Z,100245.02
2018-06-11T18:40:27.534Z,100242.34
2018-06-11T18:42:56.011Z,100241.83
2018-06-11T18:45:24.396Z,100237.02
2018-06-11T18:47:52.719Z,100230.19
2018-06-11T18:50:21.050Z,100226.56
2018-06-11T18:52:49.441Z,100225.05
2018-06-11T18:55:17.895Z,100230.56
2018-06-11T18:57:46.294Z,100237.27
2018-06-11T19:00:14.620Z,100244.52
2018-06-11T19:02:42.992Z,100237.47
2018-06-11T19:05:11.382Z,100242.88
2018-06-11T19:07:39.764Z,100248.67
2018-06-11T19:10:08.082Z,100245.61
2018-06-11T19:12:36.513Z,100241.77
2018-06-11T19:15:04.894Z,100243.34
2018-06-11T19:17:33.378Z,100247.25
2018-06-11T19:20:01.822Z,100252.78
2018-06-11T19:22:30.296Z,100269.32
2018-06-11T19:24:58.630Z,100272.25
2018-06-11T19:27:27.000Z,100287.80
2018-06-11T19:29:56.454Z,100288.90
2018-06-11T19:32:24.897Z,100290.66
2018-06-11T19:34:53.328Z,100282.95
2018-06-11T19:37:21.745Z,100277.45
2018-06-11T19:39:50.174Z,100276.52
2018-06-11T19:42:18.577Z,100280.97
2018-06-11T19:44:47.032Z,100285.38
2018-06-11T19:47:15.446Z,100291.06
2018-06-11T19:49:43.857Z,100288.82
2018-06-11T19:52:13.009Z,100293.11
2018-06-11T19:54:41.371Z,100288.86
2018-06-11T19:57:09.718Z,100290.89
2018-06-11T19:59:38.150Z,100295.18
2018-06-11T20:02:06.484Z,100285.10
2018-06-11T20:04:36.529Z,100295.23
2018-06-11T20:07:05.079Z,100287.69
2018-06-11T20:09:33.425Z,100285.72
2018-06-11T20:12:01.798Z,100288.39
2018-06-11T20:14:30.179Z,100289.40
2018-06-11T20:16:58.633Z,100284.47
2018-06-11T20:19:27.013Z,100281.84
2018-06-11T20:21:55.569Z,100282.02
2018-06-11T20:24:24.001Z,100276.59
2018-06-11T20:26:52.334Z,100276.95
2018-06-11T20:29:20.771Z,100274.66
2018-06-11T20:31:49.137Z,100276.00
2018-06-11T20:34:18.244Z,100274.00
2018-06-11T20:36:46.635Z,100263.10
2018-06-11T20:39:15.017Z,100263.94
2018-06-11T20:41:43.349Z,100265.45
2018-06-11T20:44:11.860Z,100271.39
2018-06-11T20:46:40.181Z,100273.53
2018-06-11T20:49:08.658Z,100269.59
2018-06-11T20:51:37.009Z,100272.03
2018-06-11T20:54:06.418Z,100267.25
2018-06-11T20:56:34.778Z,100272.07
2018-06-11T20:59:03.368Z,100273.06
2018-06-11T21:01:31.694Z,100272.07
2018-06-11T21:04:00.144Z,100272.25
2018-06-11T21:06:28.653Z,100277.21
2018-06-11T21:08:57.096Z,100282.02
2018-06-11T21:11:25.469Z,100288.28
2018-06-11T21:13:53.966Z,100293.44
2018-06-11T21:16:22.338Z,100302.85
2018-06-11T21:18:50.915Z,100310.45
2018-06-11T21:21:21.144Z,100303.85
2018-06-11T21:23:49.672Z,100305.17
2018-06-11T21:26:18.140Z,100298.41
2018-06-11T21:28:46.664Z,100302.38
2018-06-11T21:31:15.076Z,100304.50
2018-06-11T21:33:43.489Z,100296.09
2018-06-11T21:36:12.014Z,100297.07
2018-06-11T21:38:40.497Z,100293.12
2018-06-11T21:41:08.900Z,100293.61
2018-06-11T21:43:37.356Z,100297.41
2018-06-11T21:46:05.770Z,100291.63
2018-06-11T21:48:34.133Z,100288.64
2018-06-11T21:51:02.597Z,100296.09
2018-06-11T21:53:30.924Z,100293.58
2018-06-11T21:55:59.904Z,100285.34
2018-06-11T21:58:28.268Z,100279.72
2018-06-11T22:00:56.654Z,100276.42
2018-06-11T22:03:25.048Z,100273.75
2018-06-11T22:05:53.346Z,100271.25
2018-06-11T22:08:21.738Z,100271.08
2018-06-11T22:10:50.094Z,100268.44
2018-06-11T22:13:18.445Z,100270.63
2018-06-11T22:15:46.827Z,100273.38
2018-06-11T22:18:15.301Z,100272.05
2018-06-11T22:20:43.640Z,100273.03
2018-06-11T22:23:12.013Z,100274.66
2018-06-11T22:25:40.397Z,100273.48
2018-06-11T22:28:08.729Z,100274.48
2018-06-11T22:30:37.083Z,100275.28
2018-06-11T22:33:05.453Z,100275.97
2018-06-11T22:35:33.784Z,100267.57
2018-06-11T22:38:02.204Z,100260.44
2018-06-11T22:40:30.536Z,100257.32
2018-06-11T22:42:58.941Z,100264.45
2018-06-11T22:45:27.389Z,100258.64
2018-06-11T22:47:55.757Z,100260.97
2018-06-11T22:50:24.097Z,100260.13
2018-06-11T22:52:52.530Z,100256.00
2018-06-11T22:55:20.867Z,100252.70
2018-06-11T22:57:49.314Z,100258.78
2018-06-11T23:00:24.158Z,100259.12
2018-06-11T23:02:52.629Z,100260.61
2018-06-11T23:05:20.961Z,100266.03
2018-06-11T23:07:49.357Z,100259.51
2018-06-11T23:10:17.681Z,100257.53
2018-06-11T23:12:46.126Z,100260.66
2018-06-11T23:15:14.462Z,100265.41
2018-06-11T23:17:42.848Z,100263.61
2018-06-11T23:20:11.257Z,100260.93
2018-06-11T23:22:39.637Z,100263.22
2018-06-11T23:25:07.966Z,100263.22
2018-06-11T23:27:36.394Z,100267.66
2018-06-11T23:30:04.718Z,100261.88
2018-06-11T23:32:33.122Z,100257.44
2018-06-11T23:35:01.450Z,100247.86
2018-06-11T23:37:29.765Z,100253.48
2018-06-11T23:39:58.097Z,100257.75
2018-06-11T23:42:26.560Z,100257.94
2018-06-11T23:44:54.917Z,100253.31
2018-06-11T23:47:23.231Z,100257.80
2018-06-11T23:49:51.764Z,100251.86
2018-06-11T23:52:20.086Z,100245.39
2018-06-11T23:54:48.401Z,100247.20
2018-06-11T23:57:16.744Z,100243.59
2018-06-11T23:59:45.076Z,100254.67
